sensor_id;sensor_type;location;lat;lon;timestamp;temperature;humidity
1948;DHT22;974;52.400;9.818;2022-12-29T00:01:39;9.20;99.90
1948;DHT22;974;52.400;9.818;2022-12-29T00:04:06;9.20;99.90
1948;DHT22;974;52.400;9.818;2022-12-29T00:06:31;9.20;99.90
1948;DHT22;974;52.400;9.818;2022-12-29T00:08:57;9.20;99.90
1948;DHT22;974;52.400;9.818;2022-12-29T00:11:24;9.30;99.90
1948;DHT22;974;52.400;9.818;2022-12-29T00:13:51;9.30;99.90
1948;DHT22;974;52.400;9.818;2022-12-29T00:16:36;9.30;99.90
1948;DHT22;974;52.400;9.818;2022-12-29T00:19:03;9.30;99.90
1948;DHT22;974;52.400;9.818;2022-12-29T00:21:29;9.30;99.90
1948;DHT22;974;52.400;9.818;2022-12-29T00:29:47;9.50;99.90
1948;DHT22;974;52.400;9.818;2022-12-29T00:32:48;9.50;99.90
1948;DHT22;974;52.400;9.818;2022-12-29T00:35:39;9.50;99.90
1948;DHT22;974;52.400;9.818;2022-12-29T00:38:07;9.50;99.90
1948;DHT22;974;52.400;9.818;2022-12-29T00:40:51;9.50;99.90
1948;DHT22;974;52.400;9.818;2022-12-29T00:43:36;9.50;99.90
1948;DHT22;974;52.400;9.818;2022-12-29T00:46:20;9.60;99.90
1948;DHT22;974;52.400;9.818;2022-12-29T00:48:45;9.60;99.90
1948;DHT22;974;52.400;9.818;2022-12-29T00:51:30;9.60;99.90
1948;DHT22;974;52.400;9.818;2022-12-29T00:53:55;9.60;99.90
1948;DHT22;974;52.400;9.818;2022-12-29T00:56:20;9.70;99.90
1948;DHT22;974;52.400;9.818;2022-12-29T00:58:46;9.70;99.90
1948;DHT22;974;52.400;9.818;2022-12-29T01:01:12;9.70;99.90
1948;DHT22;974;52.400;9.818;2022-12-29T01:03:37;9.70;99.90
1948;DHT22;974;52.400;9.818;2022-12-29T01:06:06;9.70;99.90
1948;DHT22;974;52.400;9.818;2022-12-29T01:08:32;9.70;99.90
1948;DHT22;974;52.400;9.818;2022-12-29T01:10:59;9.80;99.90
1948;DHT22;974;52.400;9.818;2022-12-29T01:13:24;9.80;99.90
1948;DHT22;974;52.400;9.818;2022-12-29T01:15:51;9.80;99.90
1948;DHT22;974;52.400;9.818;2022-12-29T01:18:17;9.80;99.90
1948;DHT22;974;52.400;9.818;2022-12-29T01:20:42;9.80;99.90
1948;DHT22;974;52.400;9.818;2022-12-29T01:23:08;9.80;99.90
1948;DHT22;974;52.400;9.818;2022-12-29T01:25:33;9.80;99.90
1948;DHT22;974;52.400;9.818;2022-12-29T01:27:59;9.80;99.90
1948;DHT22;974;52.400;9.818;2022-12-29T01:30:24;9.80;99.90
1948;DHT22;974;52.400;9.818;2022-12-29T01:32:50;9.80;99.90
1948;DHT22;974;52.400;9.818;2022-12-29T01:35:15;9.80;99.90
1948;DHT22;974;52.400;9.818;2022-12-29T01:37:40;9.80;99.90
1948;DHT22;974;52.400;9.818;2022-12-29T01:40:07;9.80;99.90
1948;DHT22;974;52.400;9.818;2022-12-29T01:42:32;9.70;99.90
1948;DHT22;974;52.400;9.818;2022-12-29T01:45:13;9.70;99.90
1948;DHT22;974;52.400;9.818;2022-12-29T01:47:48;9.70;99.90
1948;DHT22;974;52.400;9.818;2022-12-29T01:50:25;9.70;99.90
1948;DHT22;974;52.400;9.818;2022-12-29T01:55:23;9.70;99.90
1948;DHT22;974;52.400;9.818;2022-12-29T01:57:51;9.70;99.90
1948;DHT22;974;52.400;9.818;2022-12-29T02:00:18;9.70;99.90
1948;DHT22;974;52.400;9.818;2022-12-29T02:02:54;9.70;99.90
1948;DHT22;974;52.400;9.818;2022-12-29T02:05:33;9.70;99.90
1948;DHT22;974;52.400;9.818;2022-12-29T02:08:01;9.70;99.90
1948;DHT22;974;52.400;9.818;2022-12-29T02:10:30;9.70;99.90
1948;DHT22;974;52.400;9.818;2022-12-29T02:12:57;9.70;99.90
1948;DHT22;974;52.400;9.818;2022-12-29T02:18:12;9.70;99.90
1948;DHT22;974;52.400;9.818;2022-12-29T02:24:02;9.70;99.90
1948;DHT22;974;52.400;9.818;2022-12-29T02:32:30;9.70;99.90
1948;DHT22;974;52.400;9.818;2022-12-29T02:38:03;9.80;99.90
1948;DHT22;974;52.400;9.818;2022-12-29T02:40:51;9.80;99.90
1948;DHT22;974;52.400;9.818;2022-12-29T02:43:26;9.80;99.90
1948;DHT22;974;52.400;9.818;2022-12-29T02:46:19;9.80;99.90
1948;DHT22;974;52.400;9.818;2022-12-29T02:48:52;9.90;99.90
1948;DHT22;974;52.400;9.818;2022-12-29T02:51:36;10.00;99.90
1948;DHT22;974;52.400;9.818;2022-12-29T02:54:03;9.90;99.90
1948;DHT22;974;52.400;9.818;2022-12-29T02:56:47;10.00;99.90
1948;DHT22;974;52.400;9.818;2022-12-29T02:59:12;10.00;99.90
1948;DHT22;974;52.400;9.818;2022-12-29T03:02:06;10.00;99.90
1948;DHT22;974;52.400;9.818;2022-12-29T03:05:10;10.10;99.90
1948;DHT22;974;52.400;9.818;2022-12-29T03:07:55;10.10;99.90
1948;DHT22;974;52.400;9.818;2022-12-29T03:13:07;10.10;99.90
1948;DHT22;974;52.400;9.818;2022-12-29T03:16:11;10.10;99.90
1948;DHT22;974;52.400;9.818;2022-12-29T03:18:50;10.10;99.90
1948;DHT22;974;52.400;9.818;2022-12-29T03:21:34;10.10;99.90
1948;DHT22;974;52.400;9.818;2022-12-29T03:24:22;10.20;99.90
1948;DHT22;974;52.400;9.818;2022-12-29T03:26:50;10.20;99.90
1948;DHT22;974;52.400;9.818;2022-12-29T03:29:17;10.10;99.90
1948;DHT22;974;52.400;9.818;2022-12-29T03:31:44;10.20;99.90
1948;DHT22;974;52.400;9.818;2022-12-29T03:34:11;10.20;99.90
1948;DHT22;974;52.400;9.818;2022-12-29T03:36:53;10.20;99.90
1948;DHT22;974;52.400;9.818;2022-12-29T03:39:22;10.20;99.90
1948;DHT22;974;52.400;9.818;2022-12-29T03:41:50;10.20;99.90
1948;DHT22;974;52.400;9.818;2022-12-29T03:44:18;10.20;99.90
1948;DHT22;974;52.400;9.818;2022-12-29T03:46:43;10.20;99.90
1948;DHT22;974;52.400;9.818;2022-12-29T03:49:08;10.30;99.90
1948;DHT22;974;52.400;9.818;2022-12-29T03:51:34;10.30;99.90
1948;DHT22;974;52.400;9.818;2022-12-29T03:53:59;10.30;99.90
1948;DHT22;974;52.400;9.818;2022-12-29T03:56:25;10.30;99.90
1948;DHT22;974;52.400;9.818;2022-12-29T03:58:50;10.30;99.90
1948;DHT22;974;52.400;9.818;2022-12-29T04:01:16;10.30;99.90
1948;DHT22;974;52.400;9.818;2022-12-29T04:03:41;10.40;99.90
1948;DHT22;974;52.400;9.818;2022-12-29T04:06:07;10.40;99.90
1948;DHT22;974;52.400;9.818;2022-12-29T04:08:33;10.40;99.90
1948;DHT22;974;52.400;9.818;2022-12-29T04:10:58;10.40;99.90
1948;DHT22;974;52.400;9.818;2022-12-29T04:13:24;10.40;99.90
1948;DHT22;974;52.400;9.818;2022-12-29T04:15:49;10.50;99.90
1948;DHT22;974;52.400;9.818;2022-12-29T04:18:14;10.50;99.90
1948;DHT22;974;52.400;9.818;2022-12-29T04:20:41;10.50;99.90
1948;DHT22;974;52.400;9.818;2022-12-29T04:23:25;10.50;99.90
1948;DHT22;974;52.400;9.818;2022-12-29T04:25:51;10.60;99.90
1948;DHT22;974;52.400;9.818;2022-12-29T04:28:17;10.60;99.90
1948;DHT22;974;52.400;9.818;2022-12-29T04:30:46;10.60;99.90
1948;DHT22;974;52.400;9.818;2022-12-29T04:33:11;10.60;99.90
1948;DHT22;974;52.400;9.818;2022-12-29T04:35:37;10.60;99.90
1948;DHT22;974;52.400;9.818;2022-12-29T04:38:03;10.60;99.90
1948;DHT22;974;52.400;9.818;2022-12-29T04:40:28;10.60;99.90
1948;DHT22;974;52.400;9.818;2022-12-29T04:42:54;10.70;99.90
1948;DHT22;974;52.400;9.818;2022-12-29T04:45:20;10.70;99.90
1948;DHT22;974;52.400;9.818;2022-12-29T04:47:45;10.70;99.90
1948;DHT22;974;52.400;9.818;2022-12-29T04:50:11;10.70;99.90
1948;DHT22;974;52.400;9.818;2022-12-29T04:52:36;10.80;99.90
1948;DHT22;974;52.400;9.818;2022-12-29T04:55:02;10.80;99.90
1948;DHT22;974;52.400;9.818;2022-12-29T04:57:28;10.80;99.90
1948;DHT22;974;52.400;9.818;2022-12-29T04:59:53;10.80;99.90
1948;DHT22;974;52.400;9.818;2022-12-29T05:02:19;10.90;99.90
1948;DHT22;974;52.400;9.818;2022-12-29T05:04:44;10.90;99.90
1948;DHT22;974;52.400;9.818;2022-12-29T05:07:11;10.90;99.90
1948;DHT22;974;52.400;9.818;2022-12-29T05:09:36;10.90;99.90
1948;DHT22;974;52.400;9.818;2022-12-29T05:12:02;10.90;99.90
1948;DHT22;974;52.400;9.818;2022-12-29T05:14:27;10.90;99.90
1948;DHT22;974;52.400;9.818;2022-12-29T05:16:53;10.90;99.90
1948;DHT22;974;52.400;9.818;2022-12-29T05:19:18;10.90;99.90
1948;DHT22;974;52.400;9.818;2022-12-29T05:21:44;10.90;99.90
1948;DHT22;974;52.400;9.818;2022-12-29T05:24:09;10.90;99.90
1948;DHT22;974;52.400;9.818;2022-12-29T05:26:35;11.00;99.90
1948;DHT22;974;52.400;9.818;2022-12-29T05:29:00;11.00;99.90
1948;DHT22;974;52.400;9.818;2022-12-29T05:31:26;11.00;99.90
1948;DHT22;974;52.400;9.818;2022-12-29T05:33:52;11.00;99.90
1948;DHT22;974;52.400;9.818;2022-12-29T05:36:17;11.00;99.90
1948;DHT22;974;52.400;9.818;2022-12-29T05:38:43;11.00;99.90
1948;DHT22;974;52.400;9.818;2022-12-29T05:41:09;11.00;99.90
1948;DHT22;974;52.400;9.818;2022-12-29T05:43:34;11.00;99.90
1948;DHT22;974;52.400;9.818;2022-12-29T05:46:00;11.00;99.90
1948;DHT22;974;52.400;9.818;2022-12-29T05:48:25;11.00;99.90
1948;DHT22;974;52.400;9.818;2022-12-29T05:50:51;11.00;99.90
1948;DHT22;974;52.400;9.818;2022-12-29T05:53:17;11.00;99.90
1948;DHT22;974;52.400;9.818;2022-12-29T05:55:44;11.00;99.90
1948;DHT22;974;52.400;9.818;2022-12-29T05:58:09;11.10;99.90
1948;DHT22;974;52.400;9.818;2022-12-29T06:00:35;11.00;99.90
1948;DHT22;974;52.400;9.818;2022-12-29T06:03:00;11.00;99.90
1948;DHT22;974;52.400;9.818;2022-12-29T06:05:26;11.00;99.90
1948;DHT22;974;52.400;9.818;2022-12-29T06:07:51;11.00;99.90
1948;DHT22;974;52.400;9.818;2022-12-29T06:10:17;10.90;99.90
1948;DHT22;974;52.400;9.818;2022-12-29T06:12:43;10.90;99.90
1948;DHT22;974;52.400;9.818;2022-12-29T06:15:09;10.90;99.90
1948;DHT22;974;52.400;9.818;2022-12-29T06:17:34;10.90;99.90
1948;DHT22;974;52.400;9.818;2022-12-29T06:20:00;10.90;99.90
1948;DHT22;974;52.400;9.818;2022-12-29T06:22:26;10.90;99.90
1948;DHT22;974;52.400;9.818;2022-12-29T06:24:51;10.80;99.90
1948;DHT22;974;52.400;9.818;2022-12-29T06:27:17;10.80;99.90
1948;DHT22;974;52.400;9.818;2022-12-29T06:29:42;10.80;99.90
1948;DHT22;974;52.400;9.818;2022-12-29T06:32:09;10.80;99.90
1948;DHT22;974;52.400;9.818;2022-12-29T06:34:35;10.70;99.90
1948;DHT22;974;52.400;9.818;2022-12-29T06:37:01;10.70;99.90
1948;DHT22;974;52.400;9.818;2022-12-29T06:39:27;10.70;99.90
1948;DHT22;974;52.400;9.818;2022-12-29T06:41:53;10.70;99.90
1948;DHT22;974;52.400;9.818;2022-12-29T06:44:19;10.70;99.90
1948;DHT22;974;52.400;9.818;2022-12-29T06:46:45;10.70;99.90
1948;DHT22;974;52.400;9.818;2022-12-29T06:49:10;10.70;99.90
1948;DHT22;974;52.400;9.818;2022-12-29T06:51:36;10.70;99.90
1948;DHT22;974;52.400;9.818;2022-12-29T06:54:01;10.60;99.90
1948;DHT22;974;52.400;9.818;2022-12-29T06:56:27;10.60;99.90
1948;DHT22;974;52.400;9.818;2022-12-29T06:58:52;10.60;99.90
1948;DHT22;974;52.400;9.818;2022-12-29T07:01:18;10.60;99.90
1948;DHT22;974;52.400;9.818;2022-12-29T07:03:43;10.60;99.90
1948;DHT22;974;52.400;9.818;2022-12-29T07:06:09;10.60;99.90
1948;DHT22;974;52.400;9.818;2022-12-29T07:08:35;10.60;99.90
1948;DHT22;974;52.400;9.818;2022-12-29T07:11:00;10.60;99.90
1948;DHT22;974;52.400;9.818;2022-12-29T07:13:26;10.70;99.90
1948;DHT22;974;52.400;9.818;2022-12-29T07:15:51;10.70;99.90
1948;DHT22;974;52.400;9.818;2022-12-29T07:18:17;10.70;99.90
1948;DHT22;974;52.400;9.818;2022-12-29T07:20:42;10.70;99.90
1948;DHT22;974;52.400;9.818;2022-12-29T07:23:08;10.70;99.90
1948;DHT22;974;52.400;9.818;2022-12-29T07:25:33;10.80;99.90
1948;DHT22;974;52.400;9.818;2022-12-29T07:28:01;10.50;99.90
1948;DHT22;974;52.400;9.818;2022-12-29T07:30:27;9.00;99.90
1948;DHT22;974;52.400;9.818;2022-12-29T07:32:52;8.90;99.90
1948;DHT22;974;52.400;9.818;2022-12-29T07:35:17;8.90;99.90
1948;DHT22;974;52.400;9.818;2022-12-29T07:37:43;8.60;99.90
1948;DHT22;974;52.400;9.818;2022-12-29T07:40:09;8.60;99.90
1948;DHT22;974;52.400;9.818;2022-12-29T07:42:35;8.60;99.90
1948;DHT22;974;52.400;9.818;2022-12-29T07:45:00;8.60;99.90
1948;DHT22;974;52.400;9.818;2022-12-29T07:47:26;8.50;99.90
1948;DHT22;974;52.400;9.818;2022-12-29T07:49:52;8.50;99.90
1948;DHT22;974;52.400;9.818;2022-12-29T07:52:18;8.50;99.90
1948;DHT22;974;52.400;9.818;2022-12-29T07:54:43;8.50;99.90
1948;DHT22;974;52.400;9.818;2022-12-29T07:57:09;8.60;99.90
1948;DHT22;974;52.400;9.818;2022-12-29T07:59:34;8.60;99.90
1948;DHT22;974;52.400;9.818;2022-12-29T08:02:00;8.60;99.90
1948;DHT22;974;52.400;9.818;2022-12-29T08:04:26;8.60;99.90
1948;DHT22;974;52.400;9.818;2022-12-29T08:06:51;8.60;99.90
1948;DHT22;974;52.400;9.818;2022-12-29T08:09:17;8.60;99.90
1948;DHT22;974;52.400;9.818;2022-12-29T08:11:42;8.50;99.90
1948;DHT22;974;52.400;9.818;2022-12-29T08:14:09;8.60;99.90
1948;DHT22;974;52.400;9.818;2022-12-29T08:16:34;8.60;99.90
1948;DHT22;974;52.400;9.818;2022-12-29T08:19:00;8.60;99.90
1948;DHT22;974;52.400;9.818;2022-12-29T08:21:27;8.60;99.90
1948;DHT22;974;52.400;9.818;2022-12-29T08:23:53;8.60;99.90
1948;DHT22;974;52.400;9.818;2022-12-29T08:26:18;8.60;99.90
1948;DHT22;974;52.400;9.818;2022-12-29T08:28:44;8.60;99.90
1948;DHT22;974;52.400;9.818;2022-12-29T08:31:09;8.60;99.90
1948;DHT22;974;52.400;9.818;2022-12-29T08:33:35;8.50;99.90
1948;DHT22;974;52.400;9.818;2022-12-29T08:36:02;8.50;99.90
1948;DHT22;974;52.400;9.818;2022-12-29T08:38:29;8.50;99.90
1948;DHT22;974;52.400;9.818;2022-12-29T08:40:55;8.50;99.90
1948;DHT22;974;52.400;9.818;2022-12-29T08:43:21;8.50;99.90
1948;DHT22;974;52.400;9.818;2022-12-29T08:45:46;8.40;99.90
1948;DHT22;974;52.400;9.818;2022-12-29T08:48:12;8.50;99.90
1948;DHT22;974;52.400;9.818;2022-12-29T08:50:37;8.50;99.90
1948;DHT22;974;52.400;9.818;2022-12-29T08:53:03;8.40;99.90
1948;DHT22;974;52.400;9.818;2022-12-29T08:55:28;8.40;99.90
1948;DHT22;974;52.400;9.818;2022-12-29T08:57:54;8.50;99.90
1948;DHT22;974;52.400;9.818;2022-12-29T09:00:19;8.50;99.90
1948;DHT22;974;52.400;9.818;2022-12-29T09:02:46;8.50;99.90
1948;DHT22;974;52.400;9.818;2022-12-29T09:05:11;8.50;99.90
1948;DHT22;974;52.400;9.818;2022-12-29T09:07:37;8.40;99.90
1948;DHT22;974;52.400;9.818;2022-12-29T09:10:03;8.50;99.90
1948;DHT22;974;52.400;9.818;2022-12-29T09:12:29;8.60;99.90
1948;DHT22;974;52.400;9.818;2022-12-29T09:14:54;8.60;99.90
1948;DHT22;974;52.400;9.818;2022-12-29T09:17:20;8.70;99.90
1948;DHT22;974;52.400;9.818;2022-12-29T09:20:04;8.70;99.90
1948;DHT22;974;52.400;9.818;2022-12-29T09:22:30;8.70;99.90
1948;DHT22;974;52.400;9.818;2022-12-29T09:24:55;8.70;99.90
1948;DHT22;974;52.400;9.818;2022-12-29T09:27:21;8.70;99.90
1948;DHT22;974;52.400;9.818;2022-12-29T09:29:46;8.70;99.90
1948;DHT22;974;52.400;9.818;2022-12-29T09:32:12;8.70;99.90
1948;DHT22;974;52.400;9.818;2022-12-29T09:34:37;8.80;99.90
1948;DHT22;974;52.400;9.818;2022-12-29T09:37:03;8.80;99.90
1948;DHT22;974;52.400;9.818;2022-12-29T09:39:28;8.90;99.90
1948;DHT22;974;52.400;9.818;2022-12-29T09:42:23;9.00;99.90
1948;DHT22;974;52.400;9.818;2022-12-29T09:45:14;9.00;99.90
1948;DHT22;974;52.400;9.818;2022-12-29T09:47:36;9.10;99.90
1948;DHT22;974;52.400;9.818;2022-12-29T09:50:09;9.10;99.90
1948;DHT22;974;52.400;9.818;2022-12-29T09:52:40;9.20;99.90
1948;DHT22;974;52.400;9.818;2022-12-29T09:55:16;9.20;99.90
1948;DHT22;974;52.400;9.818;2022-12-29T09:57:46;9.20;99.90
1948;DHT22;974;52.400;9.818;2022-12-29T10:00:17;9.20;99.90
1948;DHT22;974;52.400;9.818;2022-12-29T10:02:46;9.20;99.90
1948;DHT22;974;52.400;9.818;2022-12-29T10:08:00;9.20;99.90
1948;DHT22;974;52.400;9.818;2022-12-29T10:10:37;9.30;99.90
1948;DHT22;974;52.400;9.818;2022-12-29T10:13:28;9.40;99.90
1948;DHT22;974;52.400;9.818;2022-12-29T10:16:05;9.30;99.90
1948;DHT22;974;52.400;9.818;2022-12-29T10:19:11;9.30;99.90
1948;DHT22;974;52.400;9.818;2022-12-29T10:24:17;9.20;99.90
1948;DHT22;974;52.400;9.818;2022-12-29T10:26:45;9.20;99.90
1948;DHT22;974;52.400;9.818;2022-12-29T10:29:26;9.20;99.90
1948;DHT22;974;52.400;9.818;2022-12-29T10:32:02;9.20;99.90
1948;DHT22;974;52.400;9.818;2022-12-29T10:34:46;9.20;99.90
1948;DHT22;974;52.400;9.818;2022-12-29T10:37:40;9.30;99.90
1948;DHT22;974;52.400;9.818;2022-12-29T10:40:31;9.30;99.90
1948;DHT22;974;52.400;9.818;2022-12-29T10:42:58;9.40;99.90
1948;DHT22;974;52.400;9.818;2022-12-29T10:45:28;9.40;99.90
1948;DHT22;974;52.400;9.818;2022-12-29T10:48:09;9.50;99.90
1948;DHT22;974;52.400;9.818;2022-12-29T10:50:38;9.50;99.90
1948;DHT22;974;52.400;9.818;2022-12-29T10:53:15;9.60;99.90
1948;DHT22;974;52.400;9.818;2022-12-29T10:55:43;9.60;99.90
1948;DHT22;974;52.400;9.818;2022-12-29T10:58:12;9.60;99.90
1948;DHT22;974;52.400;9.818;2022-12-29T11:00:38;9.60;99.90
1948;DHT22;974;52.400;9.818;2022-12-29T11:06:18;9.60;99.90
1948;DHT22;974;52.400;9.818;2022-12-29T11:09:01;9.60;99.90
1948;DHT22;974;52.400;9.818;2022-12-29T11:11:33;9.60;99.90
1948;DHT22;974;52.400;9.818;2022-12-29T11:14:27;9.60;99.90
1948;DHT22;974;52.400;9.818;2022-12-29T11:17:01;9.70;99.90
1948;DHT22;974;52.400;9.818;2022-12-29T11:19:32;9.70;99.90
1948;DHT22;974;52.400;9.818;2022-12-29T11:24:44;9.80;99.90
1948;DHT22;974;52.400;9.818;2022-12-29T11:27:19;9.80;99.90
1948;DHT22;974;52.400;9.818;2022-12-29T11:29:46;9.80;99.90
1948;DHT22;974;52.400;9.818;2022-12-29T11:32:20;9.80;99.90
1948;DHT22;974;52.400;9.818;2022-12-29T11:34:47;9.90;99.90
1948;DHT22;974;52.400;9.818;2022-12-29T11:37:31;9.90;99.90
1948;DHT22;974;52.400;9.818;2022-12-29T11:40:01;9.90;99.90
1948;DHT22;974;52.400;9.818;2022-12-29T11:42:48;9.90;99.90
1948;DHT22;974;52.400;9.818;2022-12-29T11:45:18;9.90;99.90
1948;DHT22;974;52.400;9.818;2022-12-29T11:47:47;9.90;99.90
1948;DHT22;974;52.400;9.818;2022-12-29T11:50:22;10.00;99.90
1948;DHT22;974;52.400;9.818;2022-12-29T11:52:50;10.00;99.90
1948;DHT22;974;52.400;9.818;2022-12-29T11:55:24;10.10;99.90
1948;DHT22;974;52.400;9.818;2022-12-29T11:57:52;10.30;99.90
1948;DHT22;974;52.400;9.818;2022-12-29T12:00:21;10.40;99.90
1948;DHT22;974;52.400;9.818;2022-12-29T12:03:04;10.50;99.90
1948;DHT22;974;52.400;9.818;2022-12-29T12:05:46;10.40;99.90
1948;DHT22;974;52.400;9.818;2022-12-29T12:08:43;10.40;99.90
1948;DHT22;974;52.400;9.818;2022-12-29T12:11:17;10.50;99.90
1948;DHT22;974;52.400;9.818;2022-12-29T12:13:58;10.50;99.90
1948;DHT22;974;52.400;9.818;2022-12-29T12:16:28;10.50;99.90
1948;DHT22;974;52.400;9.818;2022-12-29T12:19:01;10.60;99.90
1948;DHT22;974;52.400;9.818;2022-12-29T12:21:34;10.60;99.90
1948;DHT22;974;52.400;9.818;2022-12-29T12:24:38;10.60;99.90
1948;DHT22;974;52.400;9.818;2022-12-29T12:27:20;10.50;99.90
1948;DHT22;974;52.400;9.818;2022-12-29T12:30:03;10.50;99.90
1948;DHT22;974;52.400;9.818;2022-12-29T12:32:52;10.50;99.90
1948;DHT22;974;52.400;9.818;2022-12-29T12:36:01;10.50;99.90
1948;DHT22;974;52.400;9.818;2022-12-29T12:41:35;10.40;99.90
1948;DHT22;974;52.400;9.818;2022-12-29T12:44:27;10.30;99.90
1948;DHT22;974;52.400;9.818;2022-12-29T12:49:55;10.30;99.90
1948;DHT22;974;52.400;9.818;2022-12-29T12:55:45;10.30;99.90
1948;DHT22;974;52.400;9.818;2022-12-29T12:58:27;10.30;99.90
1948;DHT22;974;52.400;9.818;2022-12-29T13:03:53;10.20;99.90
1948;DHT22;974;52.400;9.818;2022-12-29T13:06:51;10.20;99.90
1948;DHT22;974;52.400;9.818;2022-12-29T13:15:01;10.30;99.90
1948;DHT22;974;52.400;9.818;2022-12-29T13:22:50;10.30;99.90
1948;DHT22;974;52.400;9.818;2022-12-29T13:25:29;10.30;99.90
1948;DHT22;974;52.400;9.818;2022-12-29T13:28:17;10.30;99.90
1948;DHT22;974;52.400;9.818;2022-12-29T13:31:14;10.40;99.90
1948;DHT22;974;52.400;9.818;2022-12-29T13:33:58;10.40;99.90
1948;DHT22;974;52.400;9.818;2022-12-29T13:36:36;10.40;99.90
1948;DHT22;974;52.400;9.818;2022-12-29T13:41:41;10.40;99.90
1948;DHT22;974;52.400;9.818;2022-12-29T13:44:15;10.40;99.90
1948;DHT22;974;52.400;9.818;2022-12-29T13:46:44;10.40;99.90
1948;DHT22;974;52.400;9.818;2022-12-29T13:49:15;10.40;99.90
1948;DHT22;974;52.400;9.818;2022-12-29T13:51:49;10.40;99.90
1948;DHT22;974;52.400;9.818;2022-12-29T13:54:43;10.40;99.90
1948;DHT22;974;52.400;9.818;2022-12-29T13:59:59;10.50;99.90
1948;DHT22;974;52.400;9.818;2022-12-29T14:02:42;10.40;99.90
1948;DHT22;974;52.400;9.818;2022-12-29T14:07:46;10.50;99.90
1948;DHT22;974;52.400;9.818;2022-12-29T14:10:46;10.40;99.90
1948;DHT22;974;52.400;9.818;2022-12-29T14:13:18;10.40;99.90
1948;DHT22;974;52.400;9.818;2022-12-29T14:15:51;10.50;99.90
1948;DHT22;974;52.400;9.818;2022-12-29T14:18:19;10.50;99.90
1948;DHT22;974;52.400;9.818;2022-12-29T14:20:56;10.50;99.90
1948;DHT22;974;52.400;9.818;2022-12-29T14:28:33;10.40;99.90
1948;DHT22;974;52.400;9.818;2022-12-29T14:36:39;10.40;99.90
1948;DHT22;974;52.400;9.818;2022-12-29T14:44:30;10.40;99.90
1948;DHT22;974;52.400;9.818;2022-12-29T14:46:57;10.40;99.90
1948;DHT22;974;52.400;9.818;2022-12-29T14:49:29;10.40;99.90
1948;DHT22;974;52.400;9.818;2022-12-29T14:52:13;10.40;99.90
1948;DHT22;974;52.400;9.818;2022-12-29T14:54:56;10.40;99.90
1948;DHT22;974;52.400;9.818;2022-12-29T14:57:49;10.40;99.90
1948;DHT22;974;52.400;9.818;2022-12-29T15:00:21;10.40;99.90
1948;DHT22;974;52.400;9.818;2022-12-29T15:03:17;10.40;99.90
1948;DHT22;974;52.400;9.818;2022-12-29T15:05:50;10.40;99.90
1948;DHT22;974;52.400;9.818;2022-12-29T15:08:24;10.40;99.90
1948;DHT22;974;52.400;9.818;2022-12-29T15:10:55;10.40;99.90
1948;DHT22;974;52.400;9.818;2022-12-29T15:13:34;10.30;99.90
1948;DHT22;974;52.400;9.818;2022-12-29T15:16:00;10.30;99.90
1948;DHT22;974;52.400;9.818;2022-12-29T15:18:26;10.30;99.90
1948;DHT22;974;52.400;9.818;2022-12-29T15:21:12;10.30;99.90
1948;DHT22;974;52.400;9.818;2022-12-29T15:23:39;10.30;99.90
1948;DHT22;974;52.400;9.818;2022-12-29T15:26:06;10.20;99.90
1948;DHT22;974;52.400;9.818;2022-12-29T15:28:41;10.20;99.90
1948;DHT22;974;52.400;9.818;2022-12-29T15:31:22;10.20;99.90
1948;DHT22;974;52.400;9.818;2022-12-29T15:33:54;10.20;99.90
1948;DHT22;974;52.400;9.818;2022-12-29T15:36:25;10.20;99.90
1948;DHT22;974;52.400;9.818;2022-12-29T15:38:52;10.20;99.90
1948;DHT22;974;52.400;9.818;2022-12-29T15:44:22;10.10;99.90
1948;DHT22;974;52.400;9.818;2022-12-29T15:46:49;10.10;99.90
1948;DHT22;974;52.400;9.818;2022-12-29T15:49:15;10.00;99.90
1948;DHT22;974;52.400;9.818;2022-12-29T15:51:41;10.00;99.90
1948;DHT22;974;52.400;9.818;2022-12-29T15:54:19;10.00;99.90
1948;DHT22;974;52.400;9.818;2022-12-29T15:56:45;10.00;99.90
1948;DHT22;974;52.400;9.818;2022-12-29T15:59:27;10.00;99.90
1948;DHT22;974;52.400;9.818;2022-12-29T16:01:54;10.00;99.90
1948;DHT22;974;52.400;9.818;2022-12-29T16:04:20;10.00;99.90
1948;DHT22;974;52.400;9.818;2022-12-29T16:07:04;10.00;99.90
1948;DHT22;974;52.400;9.818;2022-12-29T16:09:42;10.00;99.90
1948;DHT22;974;52.400;9.818;2022-12-29T16:12:37;9.90;99.90
1948;DHT22;974;52.400;9.818;2022-12-29T16:15:05;9.90;99.90
1948;DHT22;974;52.400;9.818;2022-12-29T16:17:34;9.90;99.90
1948;DHT22;974;52.400;9.818;2022-12-29T16:20:17;9.90;99.90
1948;DHT22;974;52.400;9.818;2022-12-29T16:22:48;9.80;99.90
1948;DHT22;974;52.400;9.818;2022-12-29T16:25:43;9.80;99.90
1948;DHT22;974;52.400;9.818;2022-12-29T16:28:17;9.80;99.90
1948;DHT22;974;52.400;9.818;2022-12-29T16:30:44;9.80;99.90
1948;DHT22;974;52.400;9.818;2022-12-29T16:33:50;9.80;99.90
1948;DHT22;974;52.400;9.818;2022-12-29T16:36:41;9.80;99.90
1948;DHT22;974;52.400;9.818;2022-12-29T16:41:50;9.80;99.90
1948;DHT22;974;52.400;9.818;2022-12-29T16:44:22;9.80;99.90
1948;DHT22;974;52.400;9.818;2022-12-29T16:49:29;9.70;99.90
1948;DHT22;974;52.400;9.818;2022-12-29T16:51:55;9.70;99.90
1948;DHT22;974;52.400;9.818;2022-12-29T16:54:46;9.60;99.90
1948;DHT22;974;52.400;9.818;2022-12-29T16:57:09;9.60;99.90
1948;DHT22;974;52.400;9.818;2022-12-29T16:59:40;9.60;99.90
1948;DHT22;974;52.400;9.818;2022-12-29T17:02:16;9.70;99.90
1948;DHT22;974;52.400;9.818;2022-12-29T17:04:43;9.70;99.90
1948;DHT22;974;52.400;9.818;2022-12-29T17:07:19;9.70;99.90
1948;DHT22;974;52.400;9.818;2022-12-29T17:09:44;9.60;99.90
1948;DHT22;974;52.400;9.818;2022-12-29T17:15:18;9.60;99.90
1948;DHT22;974;52.400;9.818;2022-12-29T17:17:47;9.50;99.90
1948;DHT22;974;52.400;9.818;2022-12-29T17:20:22;9.50;99.90
1948;DHT22;974;52.400;9.818;2022-12-29T17:22:49;9.50;99.90
1948;DHT22;974;52.400;9.818;2022-12-29T17:25:18;9.50;99.90
1948;DHT22;974;52.400;9.818;2022-12-29T17:27:51;9.50;99.90
1948;DHT22;974;52.400;9.818;2022-12-29T17:30:21;9.50;99.90
1948;DHT22;974;52.400;9.818;2022-12-29T17:32:57;9.50;99.90
1948;DHT22;974;52.400;9.818;2022-12-29T17:35:24;9.50;99.90
1948;DHT22;974;52.400;9.818;2022-12-29T17:37:50;9.50;99.90
1948;DHT22;974;52.400;9.818;2022-12-29T17:42:47;9.60;99.90
1948;DHT22;974;52.400;9.818;2022-12-29T17:45:16;9.60;99.90
1948;DHT22;974;52.400;9.818;2022-12-29T17:47:42;9.60;99.90
1948;DHT22;974;52.400;9.818;2022-12-29T17:50:12;9.60;99.90
1948;DHT22;974;52.400;9.818;2022-12-29T17:52:38;9.60;99.90
1948;DHT22;974;52.400;9.818;2022-12-29T17:55:04;9.60;99.90
1948;DHT22;974;52.400;9.818;2022-12-29T17:57:30;9.60;99.90
1948;DHT22;974;52.400;9.818;2022-12-29T17:59:55;9.60;99.90
1948;DHT22;974;52.400;9.818;2022-12-29T18:02:30;9.50;99.90
1948;DHT22;974;52.400;9.818;2022-12-29T18:04:57;9.50;99.90
1948;DHT22;974;52.400;9.818;2022-12-29T18:07:26;9.50;99.90
1948;DHT22;974;52.400;9.818;2022-12-29T18:09:52;9.50;99.90
1948;DHT22;974;52.400;9.818;2022-12-29T18:12:39;9.60;99.90
1948;DHT22;974;52.400;9.818;2022-12-29T18:15:12;9.50;99.90
1948;DHT22;974;52.400;9.818;2022-12-29T18:17:40;9.50;99.90
1948;DHT22;974;52.400;9.818;2022-12-29T18:20:06;9.50;99.90
1948;DHT22;974;52.400;9.818;2022-12-29T18:22:32;9.60;99.90
1948;DHT22;974;52.400;9.818;2022-12-29T18:24:57;9.60;99.90
1948;DHT22;974;52.400;9.818;2022-12-29T18:27:23;9.60;99.90
1948;DHT22;974;52.400;9.818;2022-12-29T18:29:48;9.60;99.90
1948;DHT22;974;52.400;9.818;2022-12-29T18:32:15;9.50;99.90